Time;durP1;ratioP1;P1;durP2;ratioP2;P2;SDS_P1;SDS_P2;PMS_P1;PMS_P2;Temp;Humidity;BMP_temperature;BMP_pressure;BME280_temperature;BME280_humidity;BME280_pressure;Samples;Min_cycle;Max_cycle;Signal;HPM_P1;HPM_P2
2023/01/12 00:01:18;;;;;;;9.07;5.93;;;;;;;;;;5096934;28;20175;-81
2023/01/12 00:03:44;;;;;;;10.20;6.80;;;;;;;;;;5097997;28;20386;-81
2023/01/12 00:06:10;;;;;;;9.32;5.38;;;;;;;;;;5111616;28;20038;-81
2023/01/12 00:08:37;;;;;;;10.73;5.97;;;;;;;;;;5114789;28;20537;-81
2023/01/12 00:11:03;;;;;;;13.05;5.95;;;;;;;;;;5116386;28;20083;-81
2023/01/12 00:13:30;;;;;;;10.60;6.82;;;;;;;;;;5122649;28;20032;-81
2023/01/12 00:18:43;;;;;;;10.63;6.00;;;;;;;;;;5122055;28;20034;-81
2023/01/12 00:21:09;;;;;;;9.00;5.45;;;;;;;;;;5121329;28;20035;-81
2023/01/12 00:23:35;;;;;;;10.45;5.90;;;;;;;;;;5104743;28;20028;-81
2023/01/12 00:26:01;;;;;;;11.23;5.78;;;;;;;;;;5113859;28;20028;-81
2023/01/12 00:28:27;;;;;;;10.13;6.65;;;;;;;;;;5121914;28;20091;-81
2023/01/12 00:30:59;;;;;;;7.88;6.00;;;;;;;;;;5119303;28;20047;-81
2023/01/12 00:33:25;;;;;;;10.25;6.57;;;;;;;;;;5120751;28;20055;-81
2023/01/12 00:35:51;;;;;;;9.80;5.40;;;;;;;;;;5108132;28;20406;-81
2023/01/12 00:38:17;;;;;;;10.18;5.93;;;;;;;;;;5101196;28;20055;-81
2023/01/12 00:40:43;;;;;;;11.90;6.95;;;;;;;;;;5104914;28;20028;-80
2023/01/12 00:45:53;;;;;;;14.38;6.75;;;;;;;;;;5110094;28;20058;-81
2023/01/12 00:48:19;;;;;;;11.73;6.43;;;;;;;;;;5113230;28;20024;-82
2023/01/12 00:50:45;;;;;;;11.73;6.32;;;;;;;;;;5122003;28;20027;-81
2023/01/12 00:53:12;;;;;;;13.23;7.40;;;;;;;;;;5118146;28;20050;-82
2023/01/12 00:55:38;;;;;;;12.13;6.60;;;;;;;;;;5107215;28;20043;-81
2023/01/12 00:58:04;;;;;;;10.82;7.25;;;;;;;;;;5103315;28;20032;-81
2023/01/12 01:00:30;;;;;;;9.55;6.93;;;;;;;;;;5101276;28;20028;-81
2023/01/12 01:02:57;;;;;;;10.68;7.45;;;;;;;;;;5102075;28;20035;-82
2023/01/12 01:05:23;;;;;;;12.00;7.60;;;;;;;;;;5099945;28;20055;-81
2023/01/12 01:07:49;;;;;;;13.60;7.40;;;;;;;;;;5115354;28;20031;-81
2023/01/12 01:10:16;;;;;;;15.10;8.93;;;;;;;;;;5115158;28;20027;-81
2023/01/12 01:12:42;;;;;;;15.20;8.95;;;;;;;;;;5098680;28;20397;-82
2023/01/12 01:15:08;;;;;;;15.88;9.70;;;;;;;;;;5119632;28;20072;-81
2023/01/12 01:17:34;;;;;;;16.63;9.80;;;;;;;;;;5114355;28;20106;-81
2023/01/12 01:20:00;;;;;;;15.20;9.10;;;;;;;;;;5119327;28;20070;-81
2023/01/12 01:22:26;;;;;;;17.27;8.55;;;;;;;;;;5120814;28;20110;-81
2023/01/12 01:24:52;;;;;;;16.33;9.52;;;;;;;;;;5100318;28;20060;-81
2023/01/12 01:27:19;;;;;;;17.50;9.93;;;;;;;;;;5109450;28;20027;-81
2023/01/12 01:29:45;;;;;;;14.95;9.38;;;;;;;;;;5119250;28;20139;-81
2023/01/12 01:32:11;;;;;;;14.35;9.05;;;;;;;;;;5120208;28;20043;-81
2023/01/12 01:34:37;;;;;;;18.20;9.18;;;;;;;;;;5104542;28;20031;-81
2023/01/12 01:37:03;;;;;;;15.25;9.88;;;;;;;;;;5106969;28;20389;-81
2023/01/12 01:39:29;;;;;;;14.63;8.65;;;;;;;;;;5120604;28;20024;-81
2023/01/12 01:41:55;;;;;;;17.88;10.02;;;;;;;;;;5106570;28;20031;-82
2023/01/12 01:44:30;;;;;;;16.00;10.15;;;;;;;;;;5107216;28;20065;-81
2023/01/12 01:46:56;;;;;;;17.98;9.68;;;;;;;;;;5110211;28;20431;-82
2023/01/12 01:49:28;;;;;;;15.32;9.70;;;;;;;;;;5100163;28;20020;-81
2023/01/12 01:51:56;;;;;;;18.05;10.45;;;;;;;;;;5097926;28;20413;-81
2023/01/12 01:54:22;;;;;;;15.00;9.07;;;;;;;;;;5109813;28;20019;-82
2023/01/12 01:56:50;;;;;;;14.55;8.95;;;;;;;;;;5119666;28;20088;-82
2023/01/12 01:59:20;;;;;;;14.48;8.93;;;;;;;;;;5118189;28;20102;-81
2023/01/12 02:01:46;;;;;;;13.48;9.25;;;;;;;;;;5110752;28;20024;-81
2023/01/12 02:04:12;;;;;;;15.52;10.32;;;;;;;;;;5111203;28;20088;-82
2023/01/12 02:06:39;;;;;;;17.08;9.77;;;;;;;;;;5118058;28;20035;-82
2023/01/12 02:09:17;;;;;;;20.30;10.40;;;;;;;;;;5122222;28;20043;-82
2023/01/12 02:17:32;;;;;;;19.42;11.60;;;;;;;;;;5109016;28;20072;-80
2023/01/12 02:20:07;;;;;;;23.95;12.98;;;;;;;;;;5120427;28;20020;-81
2023/01/12 02:22:33;;;;;;;24.15;14.00;;;;;;;;;;5119682;28;20059;-82
2023/01/12 02:25:31;;;;;;;20.92;12.75;;;;;;;;;;5112274;28;20078;-82
2023/01/12 02:28:26;;;;;;;17.25;11.18;;;;;;;;;;5085754;28;20407;-82
2023/01/12 02:31:11;;;;;;;16.88;9.98;;;;;;;;;;5062451;28;20051;-80
2023/01/12 02:33:50;;;;;;;15.05;8.88;;;;;;;;;;5107649;28;20028;-82
2023/01/12 02:36:16;;;;;;;15.45;8.95;;;;;;;;;;5114426;28;20563;-82
2023/01/12 02:38:49;;;;;;;13.10;8.05;;;;;;;;;;5101059;28;20025;-82
2023/01/12 02:42:39;;;;;;;13.77;8.13;;;;;;;;;;5103357;28;20030;-81
2023/01/12 02:44:12;;;;;;;13.48;7.85;;;;;;;;;;5120158;28;20103;-82
2023/01/12 02:46:40;;;;;;;11.35;7.50;;;;;;;;;;5100469;28;20050;-82
2023/01/12 02:49:11;;;;;;;9.65;6.63;;;;;;;;;;5110684;28;20043;-82
2023/01/12 02:51:42;;;;;;;10.93;6.95;;;;;;;;;;5100019;28;20020;-82
2023/01/12 02:54:10;;;;;;;10.80;6.47;;;;;;;;;;5100466;28;20394;-82
2023/01/12 02:56:43;;;;;;;9.10;6.35;;;;;;;;;;5120787;28;20020;-81
2023/01/12 02:59:13;;;;;;;11.75;6.80;;;;;;;;;;5109894;28;20034;-81
2023/01/12 03:01:40;;;;;;;10.73;7.10;;;;;;;;;;5108699;28;20099;-81
2023/01/12 03:04:08;;;;;;;10.60;5.65;;;;;;;;;;5105308;28;20027;-81
2023/01/12 03:06:41;;;;;;;9.38;6.00;;;;;;;;;;5120179;28;20106;-81
2023/01/12 03:09:07;;;;;;;9.45;6.10;;;;;;;;;;5107340;28;20032;-81
2023/01/12 03:11:35;;;;;;;10.32;5.93;;;;;;;;;;5119990;28;20020;-81
2023/01/12 03:14:02;;;;;;;8.43;5.32;;;;;;;;;;5107379;28;20501;-81
2023/01/12 03:16:31;;;;;;;8.52;5.45;;;;;;;;;;5098195;28;20027;-81
2023/01/12 03:19:08;;;;;;;8.57;4.68;;;;;;;;;;5117181;28;20023;-81
2023/01/12 03:21:42;;;;;;;8.73;5.20;;;;;;;;;;5119854;28;20320;-81
2023/01/12 03:24:09;;;;;;;8.20;4.93;;;;;;;;;;5118182;28;20024;-81
2023/01/12 03:26:36;;;;;;;8.02;5.15;;;;;;;;;;5101749;28;20355;-81
2023/01/12 03:29:05;;;;;;;7.88;4.90;;;;;;;;;;5100899;28;20058;-81
2023/01/12 03:31:31;;;;;;;7.85;4.82;;;;;;;;;;5099436;28;20031;-81
2023/01/12 03:33:57;;;;;;;10.60;5.55;;;;;;;;;;5099578;28;20035;-81
2023/01/12 03:36:23;;;;;;;7.78;4.43;;;;;;;;;;5098370;28;20031;-83
2023/01/12 03:39:03;;;;;;;8.77;4.88;;;;;;;;;;5102727;28;20028;-81
2023/01/12 03:41:35;;;;;;;7.80;4.75;;;;;;;;;;5110232;28;20479;-80
2023/01/12 03:44:03;;;;;;;7.85;4.63;;;;;;;;;;5121225;28;20032;-81
2023/01/12 03:46:33;;;;;;;9.10;5.25;;;;;;;;;;5106499;28;20032;-81
2023/01/12 03:49:02;;;;;;;9.85;4.88;;;;;;;;;;5119333;28;20069;-81
2023/01/12 03:51:33;;;;;;;7.85;4.57;;;;;;;;;;5121821;28;20115;-81
2023/01/12 03:54:01;;;;;;;7.60;4.60;;;;;;;;;;5121849;28;20024;-81
2023/01/12 03:56:29;;;;;;;7.25;4.57;;;;;;;;;;5116646;28;20108;-80
2023/01/12 03:58:55;;;;;;;8.93;4.80;;;;;;;;;;5121209;28;20015;-81
2023/01/12 04:01:21;;;;;;;7.15;4.18;;;;;;;;;;5123972;28;20049;-81
2023/01/12 04:03:47;;;;;;;8.50;5.18;;;;;;;;;;5108121;28;20039;-80
2023/01/12 04:06:13;;;;;;;8.80;4.50;;;;;;;;;;5109863;28;20027;-81
2023/01/12 04:08:39;;;;;;;7.82;4.80;;;;;;;;;;5103701;28;20055;-80
2023/01/12 04:13:50;;;;;;;7.10;4.65;;;;;;;;;;5104129;28;20089;-81
2023/01/12 04:16:17;;;;;;;7.22;4.28;;;;;;;;;;5102074;28;20020;-79
2023/01/12 04:18:43;;;;;;;8.38;5.00;;;;;;;;;;5120966;28;20093;-81
2023/01/12 04:22:41;;;;;;;8.70;4.45;;;;;;;;;;5120786;28;20023;-81
2023/01/12 04:23:55;;;;;;;7.47;4.57;;;;;;;;;;5120169;27;20047;-80
2023/01/12 04:26:21;;;;;;;8.48;4.70;;;;;;;;;;5102606;28;20024;-81
2023/01/12 04:28:47;;;;;;;8.35;5.03;;;;;;;;;;5105335;28;20552;-81
2023/01/12 04:31:13;;;;;;;7.65;4.70;;;;;;;;;;5102683;28;20028;-81
2023/01/12 04:33:39;;;;;;;10.55;5.55;;;;;;;;;;5106046;28;20175;-80
2023/01/12 04:36:05;;;;;;;7.40;4.57;;;;;;;;;;5110916;28;20455;-81
2023/01/12 04:38:32;;;;;;;7.60;4.65;;;;;;;;;;5106562;28;20028;-81
2023/01/12 04:40:58;;;;;;;9.60;5.57;;;;;;;;;;5111748;28;20064;-81
2023/01/12 04:43:24;;;;;;;9.30;4.85;;;;;;;;;;5121763;28;20032;-81
2023/01/12 04:45:52;;;;;;;9.18;5.15;;;;;;;;;;5101503;27;20036;-82
2023/01/12 04:48:18;;;;;;;10.90;6.63;;;;;;;;;;5102984;27;20023;-83
2023/01/12 04:50:44;;;;;;;8.95;5.80;;;;;;;;;;5101083;28;20039;-79
2023/01/12 04:53:11;;;;;;;11.07;6.70;;;;;;;;;;5114895;28;20077;-82
2023/01/12 04:55:39;;;;;;;8.85;5.15;;;;;;;;;;5122508;28;20039;-80
2023/01/12 04:58:05;;;;;;;9.43;5.15;;;;;;;;;;5101608;28;20028;-81
2023/01/12 05:00:31;;;;;;;9.40;6.18;;;;;;;;;;5111823;28;20072;-82
2023/01/12 05:03:01;;;;;;;9.82;4.80;;;;;;;;;;5117603;27;20032;-83
2023/01/12 05:05:27;;;;;;;7.63;4.03;;;;;;;;;;5108923;28;20251;-83
2023/01/12 05:10:38;;;;;;;7.35;3.80;;;;;;;;;;5102419;28;20042;-83
2023/01/12 05:13:04;;;;;;;7.97;3.65;;;;;;;;;;5101702;28;20039;-84
2023/01/12 05:15:30;;;;;;;6.50;3.65;;;;;;;;;;5101816;28;20051;-84
2023/01/12 05:17:56;;;;;;;6.35;3.08;;;;;;;;;;5109528;28;20043;-84
2023/01/12 05:20:23;;;;;;;6.72;2.85;;;;;;;;;;5121759;28;20032;-82
2023/01/12 05:22:51;;;;;;;7.30;3.45;;;;;;;;;;5129791;28;20028;-81
2023/01/12 05:25:17;;;;;;;6.90;2.95;;;;;;;;;;5132186;28;20023;-83
2023/01/12 05:27:43;;;;;;;6.20;2.67;;;;;;;;;;5116495;28;20028;-80
2023/01/12 05:30:09;;;;;;;5.25;2.50;;;;;;;;;;5109152;28;20028;-82
2023/01/12 05:32:37;;;;;;;6.85;3.05;;;;;;;;;;5109483;28;20039;-81
2023/01/12 05:35:03;;;;;;;5.47;2.88;;;;;;;;;;5104015;28;20012;-81
2023/01/12 05:37:29;;;;;;;6.68;2.65;;;;;;;;;;5102591;28;20079;-82
2023/01/12 05:39:55;;;;;;;6.78;2.55;;;;;;;;;;5122247;28;20084;-81
2023/01/12 05:45:06;;;;;;;5.72;2.28;;;;;;;;;;5112610;28;20086;-81
2023/01/12 05:47:33;;;;;;;5.05;2.33;;;;;;;;;;5113220;28;20028;-81
2023/01/12 05:49:59;;;;;;;5.47;2.42;;;;;;;;;;5108923;28;20465;-82
2023/01/12 05:52:25;;;;;;;5.35;2.20;;;;;;;;;;5110276;28;20024;-81
2023/01/12 05:54:51;;;;;;;5.70;2.30;;;;;;;;;;5100889;28;20030;-81
2023/01/12 05:57:17;;;;;;;7.35;2.45;;;;;;;;;;5112418;28;20020;-80
2023/01/12 05:59:43;;;;;;;4.95;2.45;;;;;;;;;;5117897;28;20139;-81
2023/01/12 06:02:12;;;;;;;6.20;1.95;;;;;;;;;;5125851;28;20079;-81
2023/01/12 06:04:38;;;;;;;5.28;2.42;;;;;;;;;;5118074;28;20051;-81
2023/01/12 06:07:04;;;;;;;4.85;2.30;;;;;;;;;;5103983;28;20031;-82
2023/01/12 06:09:30;;;;;;;6.03;2.30;;;;;;;;;;5104951;28;20028;-81
2023/01/12 06:14:41;;;;;;;4.07;1.80;;;;;;;;;;5128248;27;20035;-82
2023/01/12 06:17:07;;;;;;;6.43;2.20;;;;;;;;;;5107357;27;20028;-81
2023/01/12 06:19:33;;;;;;;4.72;2.47;;;;;;;;;;5100602;28;20085;-82
2023/01/12 06:21:59;;;;;;;5.20;2.05;;;;;;;;;;5110536;27;20027;-82
2023/01/12 06:24:26;;;;;;;4.97;2.53;;;;;;;;;;5121612;27;20032;-82
2023/01/12 06:26:53;;;;;;;4.88;2.10;;;;;;;;;;5108684;28;20027;-83
2023/01/12 06:29:19;;;;;;;5.47;2.40;;;;;;;;;;5117241;28;20031;-82
2023/01/12 06:31:45;;;;;;;7.80;2.83;;;;;;;;;;5109718;28;20031;-82
2023/01/12 06:34:12;;;;;;;4.70;2.28;;;;;;;;;;5107397;28;20031;-82
2023/01/12 06:36:38;;;;;;;5.30;2.03;;;;;;;;;;5114185;28;20022;-81
2023/01/12 06:39:04;;;;;;;5.47;2.13;;;;;;;;;;5113864;27;20542;-83
2023/01/12 06:44:15;;;;;;;4.10;1.58;;;;;;;;;;5118323;28;20073;-80
2023/01/12 06:46:41;;;;;;;5.78;2.17;;;;;;;;;;5109671;28;20040;-82
2023/01/12 06:49:07;;;;;;;5.63;1.75;;;;;;;;;;5116840;28;20421;-83
2023/01/12 06:51:33;;;;;;;7.38;2.95;;;;;;;;;;5099359;28;20525;-82
2023/01/12 06:54:00;;;;;;;5.03;2.20;;;;;;;;;;5110097;28;20106;-82
2023/01/12 06:56:26;;;;;;;5.03;2.00;;;;;;;;;;5107436;28;20027;-83
2023/01/12 06:58:52;;;;;;;5.25;1.60;;;;;;;;;;5099189;28;20050;-82
2023/01/12 07:01:18;;;;;;;5.55;1.77;;;;;;;;;;5100806;27;20547;-81
2023/01/12 07:03:44;;;;;;;5.60;1.90;;;;;;;;;;5113763;27;20032;-80
2023/01/12 07:06:10;;;;;;;4.18;1.65;;;;;;;;;;5106002;28;20314;-82
2023/01/12 07:08:37;;;;;;;4.78;1.63;;;;;;;;;;5118426;28;20031;-82
2023/01/12 07:11:03;;;;;;;6.80;2.03;;;;;;;;;;5114689;28;20416;-82
2023/01/12 07:13:30;;;;;;;4.43;1.75;;;;;;;;;;5118684;28;20087;-82
2023/01/12 07:16:00;;;;;;;4.18;2.15;;;;;;;;;;5105059;28;20032;-81
2023/01/12 07:18:26;;;;;;;6.38;1.90;;;;;;;;;;5114450;28;20054;-82
2023/01/12 07:20:52;;;;;;;4.63;2.05;;;;;;;;;;5110522;28;20023;-81
2023/01/12 07:23:18;;;;;;;6.00;3.67;;;;;;;;;;5106762;28;20028;-82
2023/01/12 07:25:44;;;;;;;4.47;2.05;;;;;;;;;;5099767;28;21129;-82
2023/01/12 07:28:11;;;;;;;4.97;2.38;;;;;;;;;;5117396;28;20043;-82
2023/01/12 07:30:37;;;;;;;8.95;5.30;;;;;;;;;;5101528;28;20058;-82
2023/01/12 07:33:07;;;;;;;35.85;21.73;;;;;;;;;;5097670;28;20028;-80
2023/01/12 07:35:33;;;;;;;20.15;13.02;;;;;;;;;;5105633;28;20048;-79
2023/01/12 07:37:59;;;;;;;8.02;4.30;;;;;;;;;;5121527;28;20073;-82
2023/01/12 07:40:25;;;;;;;18.88;13.10;;;;;;;;;;5110777;28;20096;-82
2023/01/12 07:43:05;;;;;;;6.47;4.30;;;;;;;;;;5118736;28;20664;-82
2023/01/12 07:45:31;;;;;;;6.75;3.53;;;;;;;;;;5115913;28;20044;-82
2023/01/12 07:47:57;;;;;;;20.50;14.38;;;;;;;;;;5116132;28;20035;-81
2023/01/12 07:50:24;;;;;;;8.52;4.07;;;;;;;;;;5106009;28;20032;-82
2023/01/12 07:52:50;;;;;;;10.38;4.85;;;;;;;;;;5097887;28;20047;-82
2023/01/12 07:55:17;;;;;;;9.35;4.85;;;;;;;;;;5097429;28;20032;-81
2023/01/12 07:57:44;;;;;;;13.18;8.48;;;;;;;;;;5105780;28;20020;-82
2023/01/12 08:00:10;;;;;;;11.73;8.00;;;;;;;;;;5097685;28;20016;-82
2023/01/12 08:02:36;;;;;;;19.15;15.27;;;;;;;;;;5097896;28;20447;-82
2023/01/12 08:05:02;;;;;;;13.65;10.32;;;;;;;;;;5107379;28;20063;-83
2023/01/12 08:07:31;;;;;;;11.35;9.23;;;;;;;;;;5107812;28;20039;-82
2023/01/12 08:09:56;;;;;;;9.10;5.90;;;;;;;;;;5096322;28;20020;-82
2023/01/12 08:12:22;;;;;;;7.75;3.03;;;;;;;;;;5097065;28;20051;-82
2023/01/12 08:14:48;;;;;;;6.60;2.80;;;;;;;;;;5097796;28;20059;-81
2023/01/12 08:17:17;;;;;;;6.82;3.42;;;;;;;;;;5105669;28;20020;-81
2023/01/12 08:19:47;;;;;;;7.55;4.32;;;;;;;;;;5115172;28;20045;-81
2023/01/12 08:22:16;;;;;;;11.13;6.47;;;;;;;;;;5118817;28;20384;-81
2023/01/12 08:24:48;;;;;;;24.50;17.20;;;;;;;;;;5116172;28;20034;-82
2023/01/12 08:27:15;;;;;;;11.70;7.85;;;;;;;;;;5102737;28;20099;-82
2023/01/12 08:29:44;;;;;;;7.07;3.08;;;;;;;;;;5097590;28;20085;-80
2023/01/12 08:32:12;;;;;;;8.55;5.38;;;;;;;;;;5097115;28;20024;-82
2023/01/12 08:34:39;;;;;;;4.75;1.73;;;;;;;;;;5105160;28;20066;-82
2023/01/12 08:37:07;;;;;;;5.18;1.60;;;;;;;;;;5100277;28;20059;-81
2023/01/12 08:39:34;;;;;;;3.83;1.30;;;;;;;;;;5117524;28;20020;-82
2023/01/12 08:42:00;;;;;;;3.75;1.17;;;;;;;;;;5117289;28;20023;-82
2023/01/12 08:44:32;;;;;;;3.80;1.23;;;;;;;;;;5120190;28;20550;-81
2023/01/12 08:46:58;;;;;;;5.35;3.13;;;;;;;;;;5118724;28;20034;-82
2023/01/12 08:49:25;;;;;;;4.38;0.95;;;;;;;;;;5117720;28;20020;-82
2023/01/12 08:51:51;;;;;;;2.78;1.05;;;;;;;;;;5101956;28;20028;-81
2023/01/12 08:54:18;;;;;;;2.97;1.17;;;;;;;;;;5101998;28;20024;-81
2023/01/12 08:56:44;;;;;;;6.65;3.80;;;;;;;;;;5115887;28;20024;-83
2023/01/12 08:59:11;;;;;;;7.82;4.28;;;;;;;;;;5122155;28;20023;-81
2023/01/12 09:01:37;;;;;;;6.03;1.27;;;;;;;;;;5122157;28;20023;-81
2023/01/12 09:04:04;;;;;;;6.18;2.78;;;;;;;;;;5113078;28;20032;-82
2023/01/12 09:06:31;;;;;;;7.47;2.00;;;;;;;;;;5109981;28;20032;-82
2023/01/12 09:08:58;;;;;;;3.72;1.10;;;;;;;;;;5101357;28;20024;-81
2023/01/12 09:11:26;;;;;;;4.60;1.50;;;;;;;;;;5100919;28;20024;-82
2023/01/12 09:13:52;;;;;;;2.58;1.10;;;;;;;;;;5109829;28;20042;-82
2023/01/12 09:16:19;;;;;;;3.65;1.42;;;;;;;;;;5118419;28;20047;-82
2023/01/12 09:18:45;;;;;;;4.43;1.30;;;;;;;;;;5099793;28;20024;-81
2023/01/12 09:21:13;;;;;;;4.97;1.83;;;;;;;;;;5099139;28;20027;-82
2023/01/12 09:23:39;;;;;;;4.13;1.10;;;;;;;;;;5107872;28;20474;-81
2023/01/12 09:26:14;;;;;;;4.03;1.00;;;;;;;;;;5120252;28;20028;-81
2023/01/12 09:28:43;;;;;;;6.43;1.80;;;;;;;;;;5119754;28;20023;-80
2023/01/12 09:31:10;;;;;;;3.78;1.05;;;;;;;;;;5111642;28;20087;-79
2023/01/12 09:33:37;;;;;;;3.58;1.00;;;;;;;;;;5112182;28;20016;-81
2023/01/12 09:36:04;;;;;;;3.58;1.15;;;;;;;;;;5116869;28;20122;-82
2023/01/12 09:38:30;;;;;;;4.00;1.60;;;;;;;;;;5105087;28;20028;-82
2023/01/12 09:40:57;;;;;;;5.43;1.80;;;;;;;;;;5100624;28;20028;-81
2023/01/12 09:47:17;;;;;;;7.93;4.43;;;;;;;;;;5103505;28;20108;-82
2023/01/12 09:49:12;;;;;;;6.70;2.05;;;;;;;;;;5078152;28;20028;-82
2023/01/12 09:51:42;;;;;;;4.93;1.17;;;;;;;;;;5099658;28;20028;-81
2023/01/12 09:54:09;;;;;;;3.70;1.45;;;;;;;;;;5100318;28;20028;-81
2023/01/12 09:56:40;;;;;;;5.10;1.92;;;;;;;;;;5112398;28;20024;-81
2023/01/12 09:59:16;;;;;;;6.05;1.38;;;;;;;;;;5100434;28;20020;-82
2023/01/12 10:01:42;;;;;;;3.95;1.20;;;;;;;;;;5121314;28;20107;-82
2023/01/12 10:04:08;;;;;;;4.35;1.35;;;;;;;;;;5104011;28;20092;-82
2023/01/12 10:06:35;;;;;;;5.30;1.48;;;;;;;;;;5099858;28;20069;-80
2023/01/12 10:09:05;;;;;;;4.30;1.02;;;;;;;;;;5099909;28;20043;-82
2023/01/12 10:11:50;;;;;;;3.92;1.50;;;;;;;;;;5100095;28;20101;-81
2023/01/12 10:14:19;;;;;;;4.28;1.33;;;;;;;;;;5109736;28;20099;-82
2023/01/12 10:16:48;;;;;;;5.50;1.75;;;;;;;;;;5102386;28;20043;-79
2023/01/12 10:19:17;;;;;;;7.72;1.40;;;;;;;;;;5119567;28;20095;-80
2023/01/12 10:21:43;;;;;;;4.47;2.30;;;;;;;;;;5120373;28;20019;-81
2023/01/12 10:24:12;;;;;;;4.05;1.30;;;;;;;;;;5112927;28;20110;-81
2023/01/12 10:26:42;;;;;;;4.05;1.02;;;;;;;;;;5103907;28;20019;-80
2023/01/12 10:29:10;;;;;;;4.90;1.40;;;;;;;;;;5107420;27;20048;-81
2023/01/12 10:31:36;;;;;;;5.47;1.05;;;;;;;;;;5110642;28;20077;-82
2023/01/12 10:34:11;;;;;;;3.83;1.13;;;;;;;;;;5118993;28;20031;-81
2023/01/12 10:36:46;;;;;;;3.63;1.10;;;;;;;;;;5114696;28;20480;-80
2023/01/12 10:39:32;;;;;;;4.00;1.02;;;;;;;;;;5099115;28;20081;-82
2023/01/12 10:43:17;;;;;;;9.95;1.60;;;;;;;;;;5099634;28;20030;-81
2023/01/12 10:45:13;;;;;;;7.00;1.92;;;;;;;;;;5098381;28;20051;-81
2023/01/12 10:47:39;;;;;;;3.85;1.13;;;;;;;;;;5109197;28;20027;-84
2023/01/12 10:50:18;;;;;;;5.15;1.13;;;;;;;;;;5119380;28;20088;-81
2023/01/12 10:52:44;;;;;;;7.75;1.35;;;;;;;;;;5119355;28;20024;-82
2023/01/12 10:55:18;;;;;;;3.97;1.25;;;;;;;;;;5115407;28;20015;-81
2023/01/12 10:57:46;;;;;;;4.32;1.00;;;;;;;;;;5110475;28;20024;-81
2023/01/12 11:00:19;;;;;;;4.65;1.20;;;;;;;;;;5117265;28;20020;-80
2023/01/12 11:02:46;;;;;;;3.40;1.05;;;;;;;;;;5115585;27;20023;-82
2023/01/12 11:05:32;;;;;;;4.65;1.02;;;;;;;;;;5105576;27;20020;-81
2023/01/12 11:07:59;;;;;;;2.33;0.80;;;;;;;;;;5116394;28;20027;-80
2023/01/12 11:10:30;;;;;;;3.40;1.02;;;;;;;;;;5115935;28;20023;-78
2023/01/12 11:12:58;;;;;;;4.43;0.93;;;;;;;;;;5105512;28;20051;-78
2023/01/12 11:15:24;;;;;;;5.22;1.20;;;;;;;;;;5107358;28;20027;-80
2023/01/12 11:18:06;;;;;;;6.72;1.40;;;;;;;;;;5098744;28;20020;-80
2023/01/12 11:20:40;;;;;;;3.47;1.02;;;;;;;;;;5099251;28;20114;-80
2023/01/12 11:23:26;;;;;;;3.63;1.00;;;;;;;;;;5102234;28;20020;-80
2023/01/12 11:25:52;;;;;;;4.75;1.02;;;;;;;;;;5121216;28;20035;-80
2023/01/12 11:28:23;;;;;;;4.60;1.13;;;;;;;;;;5119221;28;20509;-80
2023/01/12 11:30:52;;;;;;;5.35;1.20;;;;;;;;;;5112271;28;20063;-81
2023/01/12 11:33:36;;;;;;;3.17;1.15;;;;;;;;;;5106976;28;20076;-81
2023/01/12 11:36:07;;;;;;;3.70;1.00;;;;;;;;;;5105892;28;20074;-81
2023/01/12 11:38:53;;;;;;;6.47;1.42;;;;;;;;;;5113715;28;20020;-81
2023/01/12 11:41:21;;;;;;;2.22;0.80;;;;;;;;;;5105315;28;20115;-82
2023/01/12 11:43:55;;;;;;;6.38;1.17;;;;;;;;;;5108345;28;20127;-81
2023/01/12 11:46:41;;;;;;;4.05;0.93;;;;;;;;;;5117118;28;20417;-82
2023/01/12 11:49:14;;;;;;;2.28;0.90;;;;;;;;;;5107235;28;20027;-82
2023/01/12 11:51:41;;;;;;;2.35;0.70;;;;;;;;;;5098145;28;20032;-81
2023/01/12 11:54:09;;;;;;;3.60;0.93;;;;;;;;;;5104188;28;20031;-81
2023/01/12 11:56:35;;;;;;;3.90;0.95;;;;;;;;;;5108586;28;20110;-81
2023/01/12 11:59:01;;;;;;;3.70;0.90;;;;;;;;;;5097165;28;20020;-82
2023/01/12 12:01:39;;;;;;;3.53;1.05;;;;;;;;;;5097871;28;20020;-82
2023/01/12 12:04:12;;;;;;;3.80;0.90;;;;;;;;;;5109869;28;20023;-82
2023/01/12 12:06:41;;;;;;;3.40;0.93;;;;;;;;;;5102831;28;20059;-81
2023/01/12 12:09:10;;;;;;;6.22;1.48;;;;;;;;;;5100026;28;20508;-81
2023/01/12 12:11:39;;;;;;;4.47;0.73;;;;;;;;;;5101444;28;20565;-81
2023/01/12 12:14:18;;;;;;;2.83;0.63;;;;;;;;;;5115353;28;20032;-82
2023/01/12 12:16:59;;;;;;;4.47;1.10;;;;;;;;;;5114546;28;20034;-79
2023/01/12 12:19:25;;;;;;;5.93;1.67;;;;;;;;;;5118033;28;20057;-78
2023/01/12 12:21:51;;;;;;;4.00;0.90;;;;;;;;;;5119106;28;20009;-79
2023/01/12 12:24:23;;;;;;;2.85;0.90;;;;;;;;;;5122987;28;20031;-78
2023/01/12 12:27:09;;;;;;;3.15;0.90;;;;;;;;;;5126428;28;20027;-79
2023/01/12 12:29:54;;;;;;;2.40;0.80;;;;;;;;;;5114457;28;20040;-81
2023/01/12 12:32:42;;;;;;;3.60;1.10;;;;;;;;;;5121437;28;20389;-81
2023/01/12 12:35:11;;;;;;;4.28;1.23;;;;;;;;;;5102208;28;20254;-79
2023/01/12 12:37:51;;;;;;;2.20;0.90;;;;;;;;;;5100785;28;20030;-79
2023/01/12 12:40:29;;;;;;;2.55;0.93;;;;;;;;;;5101338;28;20396;-80
2023/01/12 12:45:39;;;;;;;2.33;0.70;;;;;;;;;;5102501;28;20094;-80
2023/01/12 12:48:13;;;;;;;4.10;0.90;;;;;;;;;;5101543;28;20015;-80
2023/01/12 12:50:43;;;;;;;3.13;0.90;;;;;;;;;;5117638;28;20061;-78
2023/01/12 12:53:17;;;;;;;4.20;1.02;;;;;;;;;;5132770;28;20027;-79
2023/01/12 12:55:43;;;;;;;2.38;1.05;;;;;;;;;;5138204;28;20065;-78
2023/01/12 12:58:21;;;;;;;2.10;0.70;;;;;;;;;;5127938;28;20485;-80
2023/01/12 13:00:48;;;;;;;2.95;0.90;;;;;;;;;;5117579;28;20032;-81
2023/01/12 13:03:52;;;;;;;2.78;1.00;;;;;;;;;;5108137;28;20028;-81
2023/01/12 13:06:30;;;;;;;4.72;0.82;;;;;;;;;;5079777;28;20021;-81
2023/01/12 13:08:56;;;;;;;3.88;0.98;;;;;;;;;;5078294;28;20028;-81
2023/01/12 13:11:40;;;;;;;2.75;0.90;;;;;;;;;;5054975;28;20063;-81
2023/01/12 13:14:17;;;;;;;4.43;0.70;;;;;;;;;;5066864;28;20048;-81
2023/01/12 13:16:50;;;;;;;3.75;0.90;;;;;;;;;;5072410;28;20025;-81
2023/01/12 13:19:32;;;;;;;3.10;0.77;;;;;;;;;;5055950;28;20032;-79
2023/01/12 13:21:59;;;;;;;5.00;1.15;;;;;;;;;;5067889;28;20025;-81
2023/01/12 13:24:27;;;;;;;2.30;0.77;;;;;;;;;;5073585;28;20040;-81
2023/01/12 13:26:56;;;;;;;2.47;0.80;;;;;;;;;;5072996;28;20029;-83
2023/01/12 13:29:22;;;;;;;3.00;0.90;;;;;;;;;;5066506;28;20025;-82
2023/01/12 13:31:49;;;;;;;4.35;1.65;;;;;;;;;;5074686;28;20131;-82
2023/01/12 13:34:33;;;;;;;3.45;1.02;;;;;;;;;;5063089;28;20041;-83
2023/01/12 13:37:06;;;;;;;5.07;1.00;;;;;;;;;;5084801;28;20040;-83
2023/01/12 13:39:35;;;;;;;3.67;1.00;;;;;;;;;;5100872;28;20158;-83
2023/01/12 13:44:46;;;;;;;3.90;1.13;;;;;;;;;;5109173;28;20565;-82
2023/01/12 13:47:17;;;;;;;3.78;1.00;;;;;;;;;;5110438;28;20054;-82
2023/01/12 13:49:47;;;;;;;5.03;0.80;;;;;;;;;;5115053;28;20027;-82
2023/01/12 13:52:28;;;;;;;3.45;0.85;;;;;;;;;;5105287;28;20059;-82
2023/01/12 13:54:54;;;;;;;2.47;1.00;;;;;;;;;;5103929;28;20084;-83
2023/01/12 13:57:22;;;;;;;21.60;8.25;;;;;;;;;;5107836;28;20028;-82
2023/01/12 13:59:56;;;;;;;5.57;1.70;;;;;;;;;;5125120;27;20077;-82
2023/01/12 14:02:22;;;;;;;8.77;2.90;;;;;;;;;;5102983;28;20023;-82
2023/01/12 14:04:56;;;;;;;4.13;0.98;;;;;;;;;;5119530;28;20106;-82
2023/01/12 14:07:41;;;;;;;3.47;0.90;;;;;;;;;;5108532;28;20027;-82
2023/01/12 14:10:13;;;;;;;4.82;0.93;;;;;;;;;;5118470;28;20028;-82
2023/01/12 14:12:51;;;;;;;9.60;2.70;;;;;;;;;;5112424;28;20103;-82
2023/01/12 14:18:18;;;;;;;3.90;0.90;;;;;;;;;;5119453;28;20034;-82
2023/01/12 14:20:46;;;;;;;2.50;1.00;;;;;;;;;;5119752;28;20046;-82
2023/01/12 14:23:27;;;;;;;2.88;0.80;;;;;;;;;;5109186;28;20047;-83
2023/01/12 14:26:08;;;;;;;5.13;1.50;;;;;;;;;;5099376;28;20028;-82
2023/01/12 14:28:39;;;;;;;2.00;0.55;;;;;;;;;;5098991;28;20024;-81
2023/01/12 14:31:06;;;;;;;3.63;0.68;;;;;;;;;;5097676;28;20031;-82
2023/01/12 14:33:33;;;;;;;2.90;0.82;;;;;;;;;;5099379;28;20112;-83
2023/01/12 14:36:06;;;;;;;5.78;1.23;;;;;;;;;;5099589;28;20028;-82
2023/01/12 14:38:33;;;;;;;2.58;0.80;;;;;;;;;;5097349;28;20020;-82
2023/01/12 14:41:02;;;;;;;3.30;0.70;;;;;;;;;;5099337;28;20575;-83
2023/01/12 14:46:28;;;;;;;2.67;0.75;;;;;;;;;;5098259;28;20031;-81
2023/01/12 14:49:04;;;;;;;3.85;0.75;;;;;;;;;;5098019;28;20024;-82
2023/01/12 14:51:33;;;;;;;4.15;1.00;;;;;;;;;;5098957;28;20107;-82
2023/01/12 14:54:15;;;;;;;3.15;1.15;;;;;;;;;;5102885;28;20435;-82
2023/01/12 14:56:43;;;;;;;2.28;0.85;;;;;;;;;;5100422;28;20057;-83
2023/01/12 14:59:14;;;;;;;3.05;0.68;;;;;;;;;;5103907;27;20035;-82
2023/01/12 15:01:41;;;;;;;5.68;1.33;;;;;;;;;;5107513;28;20046;-81
2023/01/12 15:04:13;;;;;;;2.65;0.57;;;;;;;;;;5117748;28;20033;-82
2023/01/12 15:06:40;;;;;;;5.00;1.43;;;;;;;;;;5118855;28;20566;-82
2023/01/12 15:09:22;;;;;;;5.85;1.00;;;;;;;;;;5119156;28;20027;-83
2023/01/12 15:11:48;;;;;;;6.88;2.22;;;;;;;;;;5115744;28;20027;-82
2023/01/12 15:14:20;;;;;;;5.32;1.40;;;;;;;;;;5114249;28;20027;-82
2023/01/12 15:27:46;;;;;;;44.28;20.50;;;;;;;;;;5109957;27;20569;-81
2023/01/12 15:30:12;;;;;;;23.60;10.35;;;;;;;;;;5115242;28;20051;-82
2023/01/12 15:32:41;;;;;;;35.03;15.60;;;;;;;;;;5116878;28;20027;-81
2023/01/12 15:35:22;;;;;;;13.38;5.93;;;;;;;;;;5108465;28;20074;-81
2023/01/12 15:37:48;;;;;;;25.50;12.18;;;;;;;;;;5102858;28;20024;-82
2023/01/12 15:40:14;;;;;;;9.18;3.95;;;;;;;;;;5116222;28;20036;-81
2023/01/12 15:42:40;;;;;;;89.03;43.45;;;;;;;;;;5108638;28;20024;-79